sensor_id;sensor_type;location;lat;lon;timestamp;P1;durP1;ratioP1;P2;durP2;ratioP2
52918;SDS011;38793;52.690;6.812;2023-05-10T00:00:56;12.23;;;11.05;;
52918;SDS011;38793;52.690;6.812;2023-05-10T00:03:22;13.35;;;12.05;;
52918;SDS011;38793;52.690;6.812;2023-05-10T00:05:47;12.82;;;11.63;;
52918;SDS011;38793;52.690;6.812;2023-05-10T00:08:13;11.98;;;10.77;;
52918;SDS011;38793;52.690;6.812;2023-05-10T00:10:39;11.75;;;10.55;;
52918;SDS011;38793;52.690;6.812;2023-05-10T00:13:05;13.85;;;12.48;;
52918;SDS011;38793;52.690;6.812;2023-05-10T00:15:31;14.23;;;12.80;;
52918;SDS011;38793;52.690;6.812;2023-05-10T00:17:57;12.32;;;11.20;;
52918;SDS011;38793;52.690;6.812;2023-05-10T00:20:23;13.48;;;12.27;;
52918;SDS011;38793;52.690;6.812;2023-05-10T00:22:48;13.63;;;12.23;;
52918;SDS011;38793;52.690;6.812;2023-05-10T00:25:14;14.60;;;11.65;;
52918;SDS011;38793;52.690;6.812;2023-05-10T00:27:39;13.20;;;12.00;;
52918;SDS011;38793;52.690;6.812;2023-05-10T00:30:05;13.20;;;11.90;;
52918;SDS011;38793;52.690;6.812;2023-05-10T00:34:57;12.32;;;11.13;;
52918;SDS011;38793;52.690;6.812;2023-05-10T00:37:23;14.65;;;12.68;;
52918;SDS011;38793;52.690;6.812;2023-05-10T00:39:48;14.68;;;12.63;;
52918;SDS011;38793;52.690;6.812;2023-05-10T00:42:14;14.30;;;12.82;;
52918;SDS011;38793;52.690;6.812;2023-05-10T00:44:40;13.88;;;12.48;;
52918;SDS011;38793;52.690;6.812;2023-05-10T00:47:05;14.38;;;12.98;;
52918;SDS011;38793;52.690;6.812;2023-05-10T00:49:31;15.23;;;13.70;;
52918;SDS011;38793;52.690;6.812;2023-05-10T00:51:57;16.60;;;14.82;;
52918;SDS011;38793;52.690;6.812;2023-05-10T00:54:23;15.73;;;14.00;;
52918;SDS011;38793;52.690;6.812;2023-05-10T00:56:49;18.52;;;15.88;;
52918;SDS011;38793;52.690;6.812;2023-05-10T00:59:15;15.55;;;13.85;;
52918;SDS011;38793;52.690;6.812;2023-05-10T01:01:42;14.75;;;13.23;;
52918;SDS011;38793;52.690;6.812;2023-05-10T01:04:09;20.00;;;16.55;;
52918;SDS011;38793;52.690;6.812;2023-05-10T01:06:37;18.25;;;16.25;;
52918;SDS011;38793;52.690;6.812;2023-05-10T01:09:03;18.00;;;16.10;;
52918;SDS011;38793;52.690;6.812;2023-05-10T01:11:29;17.15;;;14.40;;
52918;SDS011;38793;52.690;6.812;2023-05-10T01:13:55;19.27;;;17.20;;
52918;SDS011;38793;52.690;6.812;2023-05-10T01:16:22;18.23;;;16.15;;
52918;SDS011;38793;52.690;6.812;2023-05-10T01:18:49;21.17;;;16.30;;
52918;SDS011;38793;52.690;6.812;2023-05-10T01:24:05;19.27;;;16.52;;
52918;SDS011;38793;52.690;6.812;2023-05-10T01:26:49;19.15;;;16.25;;
52918;SDS011;38793;52.690;6.812;2023-05-10T01:35:09;17.10;;;15.30;;
52918;SDS011;38793;52.690;6.812;2023-05-10T01:37:42;17.77;;;15.73;;
52918;SDS011;38793;52.690;6.812;2023-05-10T01:40:35;18.73;;;16.65;;
52918;SDS011;38793;52.690;6.812;2023-05-10T01:43:08;17.73;;;15.82;;
52918;SDS011;38793;52.690;6.812;2023-05-10T01:46:03;18.73;;;16.35;;
52918;SDS011;38793;52.690;6.812;2023-05-10T01:48:40;18.45;;;16.33;;
52918;SDS011;38793;52.690;6.812;2023-05-10T01:51:12;17.70;;;15.52;;
52918;SDS011;38793;52.690;6.812;2023-05-10T01:53:41;17.95;;;16.05;;
52918;SDS011;38793;52.690;6.812;2023-05-10T01:56:09;17.35;;;15.48;;
52918;SDS011;38793;52.690;6.812;2023-05-10T01:58:36;17.52;;;14.43;;
52918;SDS011;38793;52.690;6.812;2023-05-10T02:01:05;19.42;;;17.20;;
52918;SDS011;38793;52.690;6.812;2023-05-10T02:03:32;17.80;;;15.93;;
52918;SDS011;38793;52.690;6.812;2023-05-10T02:06:00;20.77;;;16.52;;
52918;SDS011;38793;52.690;6.812;2023-05-10T02:08:27;16.98;;;14.45;;
52918;SDS011;38793;52.690;6.812;2023-05-10T02:10:54;22.65;;;16.30;;
52918;SDS011;38793;52.690;6.812;2023-05-10T02:13:21;18.52;;;15.70;;
52918;SDS011;38793;52.690;6.812;2023-05-10T02:15:49;18.98;;;16.05;;
52918;SDS011;38793;52.690;6.812;2023-05-10T02:18:16;19.40;;;14.93;;
52918;SDS011;38793;52.690;6.812;2023-05-10T02:20:43;16.70;;;14.63;;
52918;SDS011;38793;52.690;6.812;2023-05-10T02:23:11;16.92;;;14.68;;
52918;SDS011;38793;52.690;6.812;2023-05-10T02:25:37;16.77;;;14.93;;
52918;SDS011;38793;52.690;6.812;2023-05-10T02:28:04;17.00;;;15.00;;
52918;SDS011;38793;52.690;6.812;2023-05-10T02:30:32;18.10;;;14.05;;
52918;SDS011;38793;52.690;6.812;2023-05-10T02:32:59;18.35;;;14.13;;
52918;SDS011;38793;52.690;6.812;2023-05-10T02:35:27;18.17;;;13.55;;
52918;SDS011;38793;52.690;6.812;2023-05-10T02:37:53;15.50;;;13.55;;
52918;SDS011;38793;52.690;6.812;2023-05-10T02:40:21;16.52;;;14.07;;
52918;SDS011;38793;52.690;6.812;2023-05-10T02:42:48;15.65;;;13.13;;
52918;SDS011;38793;52.690;6.812;2023-05-10T02:45:18;17.30;;;13.73;;
52918;SDS011;38793;52.690;6.812;2023-05-10T02:47:46;17.75;;;13.18;;
52918;SDS011;38793;52.690;6.812;2023-05-10T02:50:13;16.85;;;14.65;;
52918;SDS011;38793;52.690;6.812;2023-05-10T02:52:40;18.52;;;14.27;;
52918;SDS011;38793;52.690;6.812;2023-05-10T02:55:09;17.25;;;14.40;;
52918;SDS011;38793;52.690;6.812;2023-05-10T02:57:40;18.80;;;15.50;;
52918;SDS011;38793;52.690;6.812;2023-05-10T03:00:13;20.95;;;16.15;;
52918;SDS011;38793;52.690;6.812;2023-05-10T03:02:39;16.10;;;14.07;;
52918;SDS011;38793;52.690;6.812;2023-05-10T03:05:05;16.80;;;14.95;;
52918;SDS011;38793;52.690;6.812;2023-05-10T03:07:31;19.23;;;16.02;;
52918;SDS011;38793;52.690;6.812;2023-05-10T03:09:58;18.42;;;14.35;;
52918;SDS011;38793;52.690;6.812;2023-05-10T03:12:33;17.90;;;14.90;;
52918;SDS011;38793;52.690;6.812;2023-05-10T03:18:10;16.42;;;13.70;;
52918;SDS011;38793;52.690;6.812;2023-05-10T03:20:51;16.30;;;14.20;;
52918;SDS011;38793;52.690;6.812;2023-05-10T03:23:26;15.05;;;12.68;;
52918;SDS011;38793;52.690;6.812;2023-05-10T03:25:54;14.50;;;12.68;;
52918;SDS011;38793;52.690;6.812;2023-05-10T03:28:20;13.18;;;11.77;;
52918;SDS011;38793;52.690;6.812;2023-05-10T03:30:47;15.35;;;13.75;;
52918;SDS011;38793;52.690;6.812;2023-05-10T03:33:13;14.10;;;12.25;;
52918;SDS011;38793;52.690;6.812;2023-05-10T03:35:39;11.98;;;10.40;;
52918;SDS011;38793;52.690;6.812;2023-05-10T03:38:05;10.75;;;9.68;;
52918;SDS011;38793;52.690;6.812;2023-05-10T03:40:30;11.55;;;10.32;;
52918;SDS011;38793;52.690;6.812;2023-05-10T03:45:23;11.05;;;9.93;;
52918;SDS011;38793;52.690;6.812;2023-05-10T03:47:48;13.35;;;10.07;;
52918;SDS011;38793;52.690;6.812;2023-05-10T03:50:14;13.27;;;10.32;;
52918;SDS011;38793;52.690;6.812;2023-05-10T03:52:39;11.68;;;10.38;;
52918;SDS011;38793;52.690;6.812;2023-05-10T03:55:06;14.98;;;11.10;;
52918;SDS011;38793;52.690;6.812;2023-05-10T03:57:32;14.60;;;10.75;;
52918;SDS011;38793;52.690;6.812;2023-05-10T03:59:58;13.02;;;9.75;;
52918;SDS011;38793;52.690;6.812;2023-05-10T04:02:24;11.13;;;9.68;;
52918;SDS011;38793;52.690;6.812;2023-05-10T04:04:50;12.15;;;9.60;;
52918;SDS011;38793;52.690;6.812;2023-05-10T04:07:16;11.63;;;9.68;;
52918;SDS011;38793;52.690;6.812;2023-05-10T04:09:41;10.18;;;9.02;;
52918;SDS011;38793;52.690;6.812;2023-05-10T04:12:07;10.13;;;8.73;;
52918;SDS011;38793;52.690;6.812;2023-05-10T04:14:32;13.60;;;9.15;;
52918;SDS011;38793;52.690;6.812;2023-05-10T04:16:58;12.13;;;9.75;;
52918;SDS011;38793;52.690;6.812;2023-05-10T04:19:24;9.32;;;8.43;;
52918;SDS011;38793;52.690;6.812;2023-05-10T04:21:53;11.07;;;8.68;;
52918;SDS011;38793;52.690;6.812;2023-05-10T04:24:19;11.00;;;9.27;;
52918;SDS011;38793;52.690;6.812;2023-05-10T04:26:45;11.95;;;7.93;;
52918;SDS011;38793;52.690;6.812;2023-05-10T04:29:10;11.20;;;9.20;;
52918;SDS011;38793;52.690;6.812;2023-05-10T04:31:36;11.52;;;9.07;;
52918;SDS011;38793;52.690;6.812;2023-05-10T04:34:01;12.65;;;9.98;;
52918;SDS011;38793;52.690;6.812;2023-05-10T04:36:27;12.88;;;10.43;;
52918;SDS011;38793;52.690;6.812;2023-05-10T04:38:53;11.55;;;9.63;;
52918;SDS011;38793;52.690;6.812;2023-05-10T04:41:19;10.57;;;9.07;;
52918;SDS011;38793;52.690;6.812;2023-05-10T04:43:45;11.38;;;9.00;;
52918;SDS011;38793;52.690;6.812;2023-05-10T04:46:11;11.73;;;9.60;;
52918;SDS011;38793;52.690;6.812;2023-05-10T04:48:37;10.55;;;9.30;;
52918;SDS011;38793;52.690;6.812;2023-05-10T04:51:03;11.63;;;9.10;;
52918;SDS011;38793;52.690;6.812;2023-05-10T04:53:29;10.10;;;7.88;;
52918;SDS011;38793;52.690;6.812;2023-05-10T04:55:54;10.68;;;8.73;;
52918;SDS011;38793;52.690;6.812;2023-05-10T04:58:20;12.63;;;8.77;;
52918;SDS011;38793;52.690;6.812;2023-05-10T05:00:46;10.57;;;8.77;;
52918;SDS011;38793;52.690;6.812;2023-05-10T05:03:11;9.63;;;8.63;;
52918;SDS011;38793;52.690;6.812;2023-05-10T05:05:37;8.45;;;7.55;;
52918;SDS011;38793;52.690;6.812;2023-05-10T05:08:02;9.60;;;7.47;;
52918;SDS011;38793;52.690;6.812;2023-05-10T05:10:28;9.40;;;7.43;;
52918;SDS011;38793;52.690;6.812;2023-05-10T05:12:54;11.35;;;7.35;;
52918;SDS011;38793;52.690;6.812;2023-05-10T05:15:20;9.13;;;7.00;;
52918;SDS011;38793;52.690;6.812;2023-05-10T05:17:46;11.20;;;7.55;;
52918;SDS011;38793;52.690;6.812;2023-05-10T05:20:12;8.40;;;7.60;;
52918;SDS011;38793;52.690;6.812;2023-05-10T05:22:38;9.60;;;6.18;;
52918;SDS011;38793;52.690;6.812;2023-05-10T05:25:04;8.00;;;6.30;;
52918;SDS011;38793;52.690;6.812;2023-05-10T05:27:30;7.00;;;5.72;;
52918;SDS011;38793;52.690;6.812;2023-05-10T05:29:56;11.68;;;7.13;;
52918;SDS011;38793;52.690;6.812;2023-05-10T05:32:22;8.90;;;5.90;;
52918;SDS011;38793;52.690;6.812;2023-05-10T05:34:49;11.00;;;6.55;;
52918;SDS011;38793;52.690;6.812;2023-05-10T05:39:41;10.60;;;7.60;;
52918;SDS011;38793;52.690;6.812;2023-05-10T05:44:33;8.32;;;7.00;;
52918;SDS011;38793;52.690;6.812;2023-05-10T05:46:59;7.80;;;5.78;;
52918;SDS011;38793;52.690;6.812;2023-05-10T05:49:25;7.65;;;6.10;;
52918;SDS011;38793;52.690;6.812;2023-05-10T05:51:50;11.13;;;6.30;;
52918;SDS011;38793;52.690;6.812;2023-05-10T05:54:16;9.95;;;6.25;;
52918;SDS011;38793;52.690;6.812;2023-05-10T05:56:42;9.38;;;7.38;;
52918;SDS011;38793;52.690;6.812;2023-05-10T05:59:09;9.00;;;6.68;;
52918;SDS011;38793;52.690;6.812;2023-05-10T06:01:35;11.32;;;6.68;;
52918;SDS011;38793;52.690;6.812;2023-05-10T06:04:01;10.00;;;6.15;;
52918;SDS011;38793;52.690;6.812;2023-05-10T06:06:26;7.53;;;6.22;;
52918;SDS011;38793;52.690;6.812;2023-05-10T06:08:52;10.90;;;6.07;;
52918;SDS011;38793;52.690;6.812;2023-05-10T06:11:18;11.10;;;6.90;;
52918;SDS011;38793;52.690;6.812;2023-05-10T06:13:44;8.35;;;5.93;;
52918;SDS011;38793;52.690;6.812;2023-05-10T06:16:09;10.40;;;5.97;;
52918;SDS011;38793;52.690;6.812;2023-05-10T06:18:35;9.40;;;7.15;;
52918;SDS011;38793;52.690;6.812;2023-05-10T06:21:01;11.35;;;6.30;;
52918;SDS011;38793;52.690;6.812;2023-05-10T06:23:26;9.85;;;6.40;;
52918;SDS011;38793;52.690;6.812;2023-05-10T06:25:52;7.72;;;6.93;;
52918;SDS011;38793;52.690;6.812;2023-05-10T06:28:17;14.05;;;6.90;;
52918;SDS011;38793;52.690;6.812;2023-05-10T06:30:43;10.80;;;7.07;;
52918;SDS011;38793;52.690;6.812;2023-05-10T06:33:09;9.98;;;6.47;;
52918;SDS011;38793;52.690;6.812;2023-05-10T06:35:35;10.57;;;7.13;;
52918;SDS011;38793;52.690;6.812;2023-05-10T06:38:01;10.23;;;7.13;;
52918;SDS011;38793;52.690;6.812;2023-05-10T06:40:27;10.43;;;7.72;;
52918;SDS011;38793;52.690;6.812;2023-05-10T06:42:53;8.85;;;6.97;;
52918;SDS011;38793;52.690;6.812;2023-05-10T06:45:18;11.02;;;6.93;;
52918;SDS011;38793;52.690;6.812;2023-05-10T06:47:44;12.73;;;7.10;;
52918;SDS011;38793;52.690;6.812;2023-05-10T06:50:10;16.13;;;8.32;;
52918;SDS011;38793;52.690;6.812;2023-05-10T06:52:36;11.75;;;8.60;;
52918;SDS011;38793;52.690;6.812;2023-05-10T06:55:03;12.45;;;8.27;;
52918;SDS011;38793;52.690;6.812;2023-05-10T06:57:29;11.52;;;7.60;;
52918;SDS011;38793;52.690;6.812;2023-05-10T06:59:55;11.45;;;7.72;;
52918;SDS011;38793;52.690;6.812;2023-05-10T07:02:21;8.50;;;7.35;;
52918;SDS011;38793;52.690;6.812;2023-05-10T07:04:47;9.32;;;6.75;;
52918;SDS011;38793;52.690;6.812;2023-05-10T07:07:13;10.32;;;6.30;;
52918;SDS011;38793;52.690;6.812;2023-05-10T07:09:39;12.20;;;6.78;;
52918;SDS011;38793;52.690;6.812;2023-05-10T07:12:05;7.32;;;6.13;;
52918;SDS011;38793;52.690;6.812;2023-05-10T07:14:30;7.95;;;5.97;;
52918;SDS011;38793;52.690;6.812;2023-05-10T07:16:56;8.63;;;5.43;;
52918;SDS011;38793;52.690;6.812;2023-05-10T07:19:22;9.77;;;6.15;;
52918;SDS011;38793;52.690;6.812;2023-05-10T07:21:47;6.85;;;5.38;;
52918;SDS011;38793;52.690;6.812;2023-05-10T07:24:13;8.23;;;5.68;;
52918;SDS011;38793;52.690;6.812;2023-05-10T07:26:39;6.50;;;5.43;;
52918;SDS011;38793;52.690;6.812;2023-05-10T07:29:04;7.53;;;4.85;;
52918;SDS011;38793;52.690;6.812;2023-05-10T07:31:30;7.90;;;5.47;;
52918;SDS011;38793;52.690;6.812;2023-05-10T07:33:56;9.32;;;5.80;;
52918;SDS011;38793;52.690;6.812;2023-05-10T07:36:21;8.63;;;5.07;;
52918;SDS011;38793;52.690;6.812;2023-05-10T07:38:47;9.93;;;5.68;;
52918;SDS011;38793;52.690;6.812;2023-05-10T07:41:14;7.93;;;5.40;;
52918;SDS011;38793;52.690;6.812;2023-05-10T07:43:40;6.53;;;4.45;;
52918;SDS011;38793;52.690;6.812;2023-05-10T07:46:05;7.00;;;5.53;;
52918;SDS011;38793;52.690;6.812;2023-05-10T07:48:31;11.68;;;6.07;;
52918;SDS011;38793;52.690;6.812;2023-05-10T07:50:57;9.32;;;6.03;;
52918;SDS011;38793;52.690;6.812;2023-05-10T07:53:22;12.10;;;5.90;;
52918;SDS011;38793;52.690;6.812;2023-05-10T07:55:51;8.85;;;6.20;;
52918;SDS011;38793;52.690;6.812;2023-05-10T07:58:23;8.80;;;7.05;;
52918;SDS011;38793;52.690;6.812;2023-05-10T08:00:49;11.60;;;7.03;;
52918;SDS011;38793;52.690;6.812;2023-05-10T08:03:14;10.05;;;5.78;;
52918;SDS011;38793;52.690;6.812;2023-05-10T08:05:40;9.18;;;6.20;;
52918;SDS011;38793;52.690;6.812;2023-05-10T08:08:06;8.93;;;6.40;;
52918;SDS011;38793;52.690;6.812;2023-05-10T08:10:32;7.00;;;6.07;;
52918;SDS011;38793;52.690;6.812;2023-05-10T08:12:57;7.10;;;5.25;;
52918;SDS011;38793;52.690;6.812;2023-05-10T08:15:23;8.65;;;5.32;;
52918;SDS011;38793;52.690;6.812;2023-05-10T08:17:50;6.25;;;4.95;;
52918;SDS011;38793;52.690;6.812;2023-05-10T08:20:16;7.43;;;4.40;;
52918;SDS011;38793;52.690;6.812;2023-05-10T08:22:44;5.40;;;4.28;;
52918;SDS011;38793;52.690;6.812;2023-05-10T08:25:10;7.40;;;6.35;;
52918;SDS011;38793;52.690;6.812;2023-05-10T08:27:36;8.90;;;5.53;;
52918;SDS011;38793;52.690;6.812;2023-05-10T08:30:01;11.32;;;6.38;;
52918;SDS011;38793;52.690;6.812;2023-05-10T08:32:27;7.60;;;5.60;;
52918;SDS011;38793;52.690;6.812;2023-05-10T08:34:53;6.85;;;4.38;;
52918;SDS011;38793;52.690;6.812;2023-05-10T08:37:18;6.10;;;4.50;;
52918;SDS011;38793;52.690;6.812;2023-05-10T08:39:45;5.07;;;3.38;;
52918;SDS011;38793;52.690;6.812;2023-05-10T08:42:12;5.30;;;3.92;;
52918;SDS011;38793;52.690;6.812;2023-05-10T08:44:45;5.25;;;3.65;;
52918;SDS011;38793;52.690;6.812;2023-05-10T08:47:13;4.57;;;3.10;;
52918;SDS011;38793;52.690;6.812;2023-05-10T08:49:43;4.85;;;3.03;;
52918;SDS011;38793;52.690;6.812;2023-05-10T08:52:11;4.10;;;2.35;;
52918;SDS011;38793;52.690;6.812;2023-05-10T08:54:40;4.38;;;3.78;;
52918;SDS011;38793;52.690;6.812;2023-05-10T08:57:06;6.28;;;4.45;;
52918;SDS011;38793;52.690;6.812;2023-05-10T08:59:32;5.82;;;3.20;;
52918;SDS011;38793;52.690;6.812;2023-05-10T09:01:58;5.68;;;4.43;;
52918;SDS011;38793;52.690;6.812;2023-05-10T09:04:25;3.80;;;2.95;;
52918;SDS011;38793;52.690;6.812;2023-05-10T09:06:51;4.30;;;2.92;;
52918;SDS011;38793;52.690;6.812;2023-05-10T09:09:17;2.78;;;2.17;;
52918;SDS011;38793;52.690;6.812;2023-05-10T09:11:43;4.25;;;1.95;;
52918;SDS011;38793;52.690;6.812;2023-05-10T09:14:09;1.58;;;1.25;;
52918;SDS011;38793;52.690;6.812;2023-05-10T09:16:39;1.05;;;0.77;;
52918;SDS011;38793;52.690;6.812;2023-05-10T09:19:04;2.28;;;1.27;;
52918;SDS011;38793;52.690;6.812;2023-05-10T09:21:31;4.20;;;1.83;;
52918;SDS011;38793;52.690;6.812;2023-05-10T09:24:02;2.08;;;1.45;;
52918;SDS011;38793;52.690;6.812;2023-05-10T09:26:28;2.08;;;1.00;;
52918;SDS011;38793;52.690;6.812;2023-05-10T09:28:55;1.20;;;1.10;;
52918;SDS011;38793;52.690;6.812;2023-05-10T09:31:22;2.17;;;1.55;;
52918;SDS011;38793;52.690;6.812;2023-05-10T09:33:50;1.42;;;1.23;;
52918;SDS011;38793;52.690;6.812;2023-05-10T09:36:16;2.50;;;1.17;;
52918;SDS011;38793;52.690;6.812;2023-05-10T09:38:49;0.93;;;0.80;;
52918;SDS011;38793;52.690;6.812;2023-05-10T09:41:20;3.17;;;1.00;;
52918;SDS011;38793;52.690;6.812;2023-05-10T09:43:47;1.80;;;1.40;;
52918;SDS011;38793;52.690;6.812;2023-05-10T09:46:13;4.22;;;1.80;;
52918;SDS011;38793;52.690;6.812;2023-05-10T09:48:48;3.33;;;1.77;;
52918;SDS011;38793;52.690;6.812;2023-05-10T09:51:20;2.45;;;0.90;;
52918;SDS011;38793;52.690;6.812;2023-05-10T09:53:47;1.48;;;1.10;;
52918;SDS011;38793;52.690;6.812;2023-05-10T09:56:12;1.20;;;1.10;;
52918;SDS011;38793;52.690;6.812;2023-05-10T09:58:42;1.88;;;0.70;;
52918;SDS011;38793;52.690;6.812;2023-05-10T10:01:11;1.42;;;0.65;;
52918;SDS011;38793;52.690;6.812;2023-05-10T10:03:42;1.48;;;1.00;;
52918;SDS011;38793;52.690;6.812;2023-05-10T10:06:08;6.68;;;1.67;;
52918;SDS011;38793;52.690;6.812;2023-05-10T10:08:34;1.63;;;1.35;;
52918;SDS011;38793;52.690;6.812;2023-05-10T10:11:00;2.33;;;1.90;;
52918;SDS011;38793;52.690;6.812;2023-05-10T10:15:52;2.08;;;1.80;;
52918;SDS011;38793;52.690;6.812;2023-05-10T10:18:19;3.63;;;1.40;;
52918;SDS011;38793;52.690;6.812;2023-05-10T10:20:48;3.75;;;2.58;;
52918;SDS011;38793;52.690;6.812;2023-05-10T10:23:14;3.30;;;2.88;;
52918;SDS011;38793;52.690;6.812;2023-05-10T10:25:40;2.92;;;2.05;;
52918;SDS011;38793;52.690;6.812;2023-05-10T10:28:24;2.78;;;2.50;;
52918;SDS011;38793;52.690;6.812;2023-05-10T10:31:01;3.38;;;2.38;;
52918;SDS011;38793;52.690;6.812;2023-05-10T10:36:32;5.38;;;2.63;;
52918;SDS011;38793;52.690;6.812;2023-05-10T10:39:18;2.92;;;2.65;;
52918;SDS011;38793;52.690;6.812;2023-05-10T10:41:53;4.07;;;2.40;;
52918;SDS011;38793;52.690;6.812;2023-05-10T10:47:10;4.47;;;2.63;;
52918;SDS011;38793;52.690;6.812;2023-05-10T10:55:07;3.65;;;2.47;;
52918;SDS011;38793;52.690;6.812;2023-05-10T11:03:05;4.75;;;3.45;;
52918;SDS011;38793;52.690;6.812;2023-05-10T11:05:36;5.93;;;3.85;;
52918;SDS011;38793;52.690;6.812;2023-05-10T11:08:11;5.22;;;3.67;;
52918;SDS011;38793;52.690;6.812;2023-05-10T11:10:40;4.90;;;3.97;;
52918;SDS011;38793;52.690;6.812;2023-05-10T11:13:14;5.25;;;4.75;;
52918;SDS011;38793;52.690;6.812;2023-05-10T11:15:40;4.30;;;3.90;;
52918;SDS011;38793;52.690;6.812;2023-05-10T11:18:18;4.50;;;4.10;;
52918;SDS011;38793;52.690;6.812;2023-05-10T11:20:57;4.03;;;3.63;;
52918;SDS011;38793;52.690;6.812;2023-05-10T11:23:47;5.70;;;4.82;;
52918;SDS011;38793;52.690;6.812;2023-05-10T11:26:21;8.93;;;5.82;;
52918;SDS011;38793;52.690;6.812;2023-05-10T11:28:50;12.50;;;5.32;;
52918;SDS011;38793;52.690;6.812;2023-05-10T11:31:17;17.88;;;5.07;;
52918;SDS011;38793;52.690;6.812;2023-05-10T11:36:14;7.57;;;6.10;;
52918;SDS011;38793;52.690;6.812;2023-05-10T11:38:40;9.52;;;6.97;;
52918;SDS011;38793;52.690;6.812;2023-05-10T11:41:07;10.20;;;7.07;;
52918;SDS011;38793;52.690;6.812;2023-05-10T11:43:35;9.25;;;6.90;;
52918;SDS011;38793;52.690;6.812;2023-05-10T11:46:03;7.30;;;5.80;;
52918;SDS011;38793;52.690;6.812;2023-05-10T11:48:30;8.82;;;7.00;;
52918;SDS011;38793;52.690;6.812;2023-05-10T11:50:56;12.10;;;6.53;;
52918;SDS011;38793;52.690;6.812;2023-05-10T11:53:23;9.18;;;7.05;;
52918;SDS011;38793;52.690;6.812;2023-05-10T11:55:51;11.50;;;7.10;;
52918;SDS011;38793;52.690;6.812;2023-05-10T11:58:17;8.52;;;6.63;;
52918;SDS011;38793;52.690;6.812;2023-05-10T12:00:43;8.25;;;6.25;;
52918;SDS011;38793;52.690;6.812;2023-05-10T12:03:10;7.10;;;6.20;;
52918;SDS011;38793;52.690;6.812;2023-05-10T12:05:36;6.82;;;6.03;;
52918;SDS011;38793;52.690;6.812;2023-05-10T12:10:37;8.55;;;7.20;;
52918;SDS011;38793;52.690;6.812;2023-05-10T12:13:03;7.38;;;6.28;;
52918;SDS011;38793;52.690;6.812;2023-05-10T12:15:28;7.43;;;6.22;;
52918;SDS011;38793;52.690;6.812;2023-05-10T12:17:54;10.98;;;6.03;;
52918;SDS011;38793;52.690;6.812;2023-05-10T12:20:22;8.57;;;6.50;;
52918;SDS011;38793;52.690;6.812;2023-05-10T12:25:20;9.98;;;7.15;;
52918;SDS011;38793;52.690;6.812;2023-05-10T12:27:50;9.38;;;7.65;;
52918;SDS011;38793;52.690;6.812;2023-05-10T12:30:24;8.38;;;6.65;;
52918;SDS011;38793;52.690;6.812;2023-05-10T12:32:51;7.43;;;6.63;;
52918;SDS011;38793;52.690;6.812;2023-05-10T12:35:17;9.80;;;6.93;;
52918;SDS011;38793;52.690;6.812;2023-05-10T12:37:46;10.43;;;7.80;;
52918;SDS011;38793;52.690;6.812;2023-05-10T12:40:16;11.10;;;8.15;;
52918;SDS011;38793;52.690;6.812;2023-05-10T12:42:41;10.23;;;8.45;;
52918;SDS011;38793;52.690;6.812;2023-05-10T12:45:09;8.90;;;7.85;;
52918;SDS011;38793;52.690;6.812;2023-05-10T12:47:35;8.60;;;7.70;;
52918;SDS011;38793;52.690;6.812;2023-05-10T12:50:01;8.43;;;6.53;;
52918;SDS011;38793;52.690;6.812;2023-05-10T12:52:28;10.75;;;7.50;;
52918;SDS011;38793;52.690;6.812;2023-05-10T12:54:54;7.97;;;7.18;;
52918;SDS011;38793;52.690;6.812;2023-05-10T12:57:20;10.68;;;7.90;;
52918;SDS011;38793;52.690;6.812;2023-05-10T12:59:46;11.13;;;8.15;;
52918;SDS011;38793;52.690;6.812;2023-05-10T13:02:11;9.30;;;7.93;;
52918;SDS011;38793;52.690;6.812;2023-05-10T13:04:38;8.68;;;6.43;;
52918;SDS011;38793;52.690;6.812;2023-05-10T13:07:07;8.98;;;7.32;;
52918;SDS011;38793;52.690;6.812;2023-05-10T13:09:34;11.25;;;8.07;;
52918;SDS011;38793;52.690;6.812;2023-05-10T13:11:59;9.35;;;8.40;;
52918;SDS011;38793;52.690;6.812;2023-05-10T13:14:25;10.63;;;8.48;;
52918;SDS011;38793;52.690;6.812;2023-05-10T13:16:51;9.30;;;8.40;;
52918;SDS011;38793;52.690;6.812;2023-05-10T13:19:17;11.50;;;8.77;;
52918;SDS011;38793;52.690;6.812;2023-05-10T13:21:43;9.85;;;7.30;;
52918;SDS011;38793;52.690;6.812;2023-05-10T13:24:11;9.05;;;6.80;;
52918;SDS011;38793;52.690;6.812;2023-05-10T13:26:39;9.65;;;6.95;;
52918;SDS011;38793;52.690;6.812;2023-05-10T13:29:05;11.15;;;6.60;;
52918;SDS011;38793;52.690;6.812;2023-05-10T13:31:31;6.75;;;4.75;;
52918;SDS011;38793;52.690;6.812;2023-05-10T13:33:57;6.53;;;4.85;;
52918;SDS011;38793;52.690;6.812;2023-05-10T13:36:22;7.82;;;4.50;;
52918;SDS011;38793;52.690;6.812;2023-05-10T13:38:48;4.00;;;3.45;;
52918;SDS011;38793;52.690;6.812;2023-05-10T13:41:14;8.18;;;4.78;;
52918;SDS011;38793;52.690;6.812;2023-05-10T13:43:39;5.78;;;3.60;;
52918;SDS011;38793;52.690;6.812;2023-05-10T13:46:05;3.58;;;3.28;;
52918;SDS011;38793;52.690;6.812;2023-05-10T13:48:31;5.75;;;3.88;;
52918;SDS011;38793;52.690;6.812;2023-05-10T13:50:56;3.58;;;3.28;;
52918;SDS011;38793;52.690;6.812;2023-05-10T13:53:22;7.75;;;3.75;;
52918;SDS011;38793;52.690;6.812;2023-05-10T13:55:47;5.18;;;3.85;;
52918;SDS011;38793;52.690;6.812;2023-05-10T13:58:13;5.35;;;3.85;;
52918;SDS011;38793;52.690;6.812;2023-05-10T14:00:39;5.85;;;4.18;;
52918;SDS011;38793;52.690;6.812;2023-05-10T14:03:05;5.05;;;4.03;;
52918;SDS011;38793;52.690;6.812;2023-05-10T14:05:31;8.15;;;4.30;;
52918;SDS011;38793;52.690;6.812;2023-05-10T14:07:57;4.22;;;3.50;;
52918;SDS011;38793;52.690;6.812;2023-05-10T14:10:23;8.23;;;6.20;;
52918;SDS011;38793;52.690;6.812;2023-05-10T14:12:49;7.38;;;5.47;;
52918;SDS011;38793;52.690;6.812;2023-05-10T14:15:15;6.57;;;5.85;;
52918;SDS011;38793;52.690;6.812;2023-05-10T14:17:41;7.80;;;6.25;;
52918;SDS011;38793;52.690;6.812;2023-05-10T14:20:07;12.98;;;8.00;;
52918;SDS011;38793;52.690;6.812;2023-05-10T14:22:33;9.15;;;8.00;;
52918;SDS011;38793;52.690;6.812;2023-05-10T14:24:59;12.15;;;8.40;;
52918;SDS011;38793;52.690;6.812;2023-05-10T14:29:51;10.68;;;8.60;;
52918;SDS011;38793;52.690;6.812;2023-05-10T14:32:17;10.90;;;9.18;;
52918;SDS011;38793;52.690;6.812;2023-05-10T14:34:42;11.82;;;9.07;;
52918;SDS011;38793;52.690;6.812;2023-05-10T14:37:10;14.20;;;10.07;;
52918;SDS011;38793;52.690;6.812;2023-05-10T14:39:36;11.45;;;8.18;;
52918;SDS011;38793;52.690;6.812;2023-05-10T14:42:02;14.65;;;9.02;;
52918;SDS011;38793;52.690;6.812;2023-05-10T14:46:54;12.88;;;9.15;;
52918;SDS011;38793;52.690;6.812;2023-05-10T14:49:20;10.75;;;8.60;;
52918;SDS011;38793;52.690;6.812;2023-05-10T14:51:47;12.18;;;10.77;;
52918;SDS011;38793;52.690;6.812;2023-05-10T14:54:13;15.93;;;10.45;;
52918;SDS011;38793;52.690;6.812;2023-05-10T14:56:39;13.40;;;10.13;;
52918;SDS011;38793;52.690;6.812;2023-05-10T14:59:06;20.52;;;10.88;;
52918;SDS011;38793;52.690;6.812;2023-05-10T15:01:32;12.90;;;10.20;;
52918;SDS011;38793;52.690;6.812;2023-05-10T15:03:59;15.57;;;9.38;;
52918;SDS011;38793;52.690;6.812;2023-05-10T15:06:31;14.00;;;9.38;;
52918;SDS011;38793;52.690;6.812;2023-05-10T15:08:58;13.05;;;9.18;;
52918;SDS011;38793;52.690;6.812;2023-05-10T15:11:25;15.35;;;10.02;;
52918;SDS011;38793;52.690;6.812;2023-05-10T15:13:50;11.30;;;9.65;;
52918;SDS011;38793;52.690;6.812;2023-05-10T15:16:16;11.55;;;9.23;;
52918;SDS011;38793;52.690;6.812;2023-05-10T15:18:42;11.25;;;8.60;;
52918;SDS011;38793;52.690;6.812;2023-05-10T15:21:07;11.70;;;8.70;;
52918;SDS011;38793;52.690;6.812;2023-05-10T15:23:33;10.60;;;8.77;;
52918;SDS011;38793;52.690;6.812;2023-05-10T15:25:59;10.52;;;8.43;;
52918;SDS011;38793;52.690;6.812;2023-05-10T15:28:25;10.38;;;7.85;;
52918;SDS011;38793;52.690;6.812;2023-05-10T15:30:51;11.40;;;8.75;;